createdAt,value
2023-04-18T00:01:22.703Z,5.57
2023-04-18T00:03:55.977Z,4.75
2023-04-18T00:06:31.242Z,7.03
2023-04-18T00:09:04.782Z,4.75
2023-04-18T00:11:37.978Z,7.35
2023-04-18T00:14:12.056Z,6.05
2023-04-18T00:16:46.336Z,4.93
2023-04-18T00:19:20.171Z,4.90
2023-04-18T00:24:27.745Z,5.25
2023-04-18T00:27:01.618Z,5.55
2023-04-18T00:29:34.726Z,4.43
2023-04-18T00:32:08.057Z,5.63
2023-04-18T00:34:41.438Z,6.22
2023-04-18T00:37:15.978Z,12.20
2023-04-18T00:39:49.393Z,8.68
2023-04-18T00:42:22.655Z,11.48
2023-04-18T00:44:56.004Z,7.28
2023-04-18T00:47:29.216Z,7.28
2023-04-18T00:50:02.562Z,6.38
2023-04-18T00:52:37.738Z,5.85
2023-04-18T00:55:11.809Z,7.15
2023-04-18T00:57:45.020Z,6.13
2023-04-18T01:00:18.495Z,6.22
2023-04-18T01:02:53.292Z,5.18
2023-04-18T01:05:27.868Z,6.25
2023-04-18T01:08:02.866Z,7.07
2023-04-18T01:10:37.214Z,6.50
2023-04-18T01:13:14.603Z,5.75
2023-04-18T01:15:49.694Z,8.27
2023-04-18T01:18:23.038Z,5.72
2023-04-18T01:20:57.075Z,5.68
2023-04-18T01:23:31.941Z,5.70
2023-04-18T01:26:06.937Z,6.43
2023-04-18T01:28:40.089Z,6.25
2023-04-18T01:31:14.323Z,6.43
2023-04-18T01:33:47.493Z,5.93
2023-04-18T01:36:22.435Z,6.70
2023-04-18T01:38:55.644Z,5.72
2023-04-18T01:41:32.715Z,7.75
2023-04-18T01:44:06.467Z,7.13
2023-04-18T01:46:40.826Z,5.75
2023-04-18T01:49:14.017Z,5.35
2023-04-18T01:51:48.428Z,7.78
2023-04-18T01:54:21.722Z,6.22
2023-04-18T01:56:56.221Z,6.47
2023-04-18T01:59:29.409Z,5.95
2023-04-18T02:02:02.624Z,5.55
2023-04-18T02:04:35.851Z,7.43
2023-04-18T02:07:09.075Z,5.57
2023-04-18T02:09:42.339Z,6.53
2023-04-18T02:12:18.935Z,6.30
2023-04-18T02:14:53.627Z,6.82
2023-04-18T02:17:27.015Z,6.38
2023-04-18T02:20:00.957Z,7.93
2023-04-18T02:22:34.129Z,6.15
2023-04-18T02:25:08.984Z,6.35
2023-04-18T02:27:43.552Z,5.97
2023-04-18T02:30:17.010Z,5.68
2023-04-18T02:32:53.033Z,5.60
2023-04-18T02:35:30.910Z,6.25
2023-04-18T02:38:04.070Z,7.53
2023-04-18T02:40:37.401Z,6.90
2023-04-18T02:43:11.876Z,6.13
2023-04-18T02:45:45.066Z,6.03
2023-04-18T02:48:18.315Z,5.95
2023-04-18T02:50:52.093Z,6.22
2023-04-18T02:53:25.275Z,6.97
2023-04-18T02:56:01.778Z,8.38
2023-04-18T02:58:54.241Z,6.13
2023-04-18T03:01:57.519Z,5.63
2023-04-18T03:04:30.834Z,5.80
2023-04-18T03:07:09.320Z,5.70
2023-04-18T03:09:45.363Z,6.93
2023-04-18T03:12:25.709Z,6.03
2023-04-18T03:15:00.249Z,5.82
2023-04-18T03:17:34.289Z,7.53
2023-04-18T03:20:08.704Z,5.43
2023-04-18T03:22:41.833Z,6.00
2023-04-18T03:25:15.137Z,5.85
2023-04-18T03:27:52.622Z,7.57
2023-04-18T03:30:29.437Z,6.05
2023-04-18T03:33:05.213Z,6.28
2023-04-18T03:35:39.013Z,5.82
2023-04-18T03:38:12.214Z,6.38
2023-04-18T03:40:46.412Z,6.65
2023-04-18T03:43:27.778Z,6.72
2023-04-18T03:46:02.401Z,5.68
2023-04-18T03:48:37.268Z,6.40
2023-04-18T03:51:15.219Z,6.07
2023-04-18T03:53:48.450Z,10.48
2023-04-18T03:56:23.342Z,6.75
2023-04-18T03:58:58.754Z,6.32
2023-04-18T04:01:33.425Z,7.90
2023-04-18T04:04:06.922Z,5.90
2023-04-18T04:06:41.167Z,6.40
2023-04-18T04:09:14.453Z,7.50
2023-04-18T04:11:47.770Z,8.02
2023-04-18T04:14:22.888Z,8.43
2023-04-18T04:16:57.508Z,7.53
2023-04-18T04:19:31.048Z,6.03
2023-04-18T04:22:13.964Z,9.48
2023-04-18T04:24:48.368Z,6.70
2023-04-18T04:27:26.907Z,5.65
2023-04-18T04:30:02.565Z,6.07
2023-04-18T04:32:38.899Z,8.13
2023-04-18T04:35:12.359Z,6.57
2023-04-18T04:37:45.862Z,6.43
2023-04-18T04:40:31.255Z,6.30
2023-04-18T04:43:12.660Z,6.00
2023-04-18T04:45:51.593Z,8.75
2023-04-18T04:48:30.262Z,5.95
2023-04-18T04:51:03.480Z,5.43
2023-04-18T04:53:36.775Z,6.45
2023-04-18T04:56:10.609Z,5.13
2023-04-18T04:58:45.841Z,5.95
2023-04-18T05:01:23.889Z,6.75
2023-04-18T05:03:58.677Z,6.90
2023-04-18T05:06:32.096Z,9.80
2023-04-18T05:09:05.368Z,7.82
2023-04-18T05:11:38.758Z,8.07
2023-04-18T05:14:12.733Z,6.15
2023-04-18T05:16:46.504Z,6.35
2023-04-18T05:19:21.174Z,6.32
2023-04-18T05:21:54.358Z,5.88
2023-04-18T05:24:27.742Z,7.63
2023-04-18T05:27:01.657Z,6.13
2023-04-18T05:29:34.901Z,7.43
2023-04-18T05:32:08.350Z,9.18
2023-04-18T05:34:46.954Z,13.73
2023-04-18T05:37:20.218Z,7.13
2023-04-18T05:39:53.466Z,7.65
2023-04-18T05:42:26.692Z,10.93
2023-04-18T05:44:59.944Z,11.90
2023-04-18T05:47:33.747Z,10.50
2023-04-18T05:50:10.060Z,8.18
2023-04-18T05:52:43.237Z,11.90
2023-04-18T05:55:16.441Z,13.38
2023-04-18T05:57:49.689Z,9.65
2023-04-18T06:00:23.117Z,11.32
2023-04-18T06:02:56.596Z,10.43
2023-04-18T06:05:31.614Z,11.75
2023-04-18T06:08:05.212Z,10.80
2023-04-18T06:10:39.197Z,10.38
2023-04-18T06:13:12.602Z,9.50
2023-04-18T06:15:45.826Z,11.45
2023-04-18T06:18:19.062Z,12.52
2023-04-18T06:20:54.237Z,11.13
2023-04-18T06:23:27.368Z,11.40
2023-04-18T06:26:00.665Z,8.38
2023-04-18T06:28:33.832Z,12.52
2023-04-18T06:31:08.493Z,9.85
2023-04-18T06:33:41.685Z,9.82
2023-04-18T06:36:16.294Z,11.15
2023-04-18T06:38:49.587Z,10.25
2023-04-18T06:41:22.766Z,11.18
2023-04-18T06:44:03.360Z,12.60
2023-04-18T06:46:37.128Z,10.85
2023-04-18T06:49:10.788Z,10.63
2023-04-18T06:51:45.267Z,10.68
2023-04-18T06:54:18.410Z,11.20
2023-04-18T06:56:51.632Z,11.20
2023-04-18T06:59:24.791Z,8.75
2023-04-18T07:01:58.184Z,10.57
2023-04-18T07:04:31.424Z,14.52
2023-04-18T07:07:06.047Z,19.55
2023-04-18T07:09:39.217Z,11.65
2023-04-18T07:12:12.409Z,10.02
2023-04-18T07:14:45.629Z,9.43
2023-04-18T07:17:18.994Z,11.95
2023-04-18T07:19:52.227Z,11.98
2023-04-18T07:22:27.077Z,12.15
2023-04-18T07:25:00.397Z,11.70
2023-04-18T07:27:35.502Z,11.68
2023-04-18T07:30:09.893Z,14.13
2023-04-18T07:32:43.134Z,15.45
2023-04-18T07:35:16.577Z,13.82
2023-04-18T07:37:51.099Z,12.15
2023-04-18T07:40:24.330Z,15.88
2023-04-18T07:42:57.666Z,13.43
2023-04-18T07:45:30.870Z,15.13
2023-04-18T07:48:04.288Z,14.07
2023-04-18T07:50:37.665Z,17.30
2023-04-18T07:53:12.202Z,15.63
2023-04-18T07:55:45.695Z,10.02
2023-04-18T07:58:18.997Z,11.55
2023-04-18T08:00:52.185Z,20.17
2023-04-18T08:03:25.504Z,19.33
2023-04-18T08:05:58.832Z,16.60
2023-04-18T08:08:33.498Z,16.40
2023-04-18T08:11:06.897Z,19.48
2023-04-18T08:13:40.168Z,13.20
2023-04-18T08:16:15.567Z,24.88
2023-04-18T08:18:50.552Z,20.83
2023-04-18T08:21:23.721Z,16.98
2023-04-18T08:23:58.211Z,13.70
2023-04-18T08:26:31.381Z,21.15
2023-04-18T08:29:04.633Z,21.40
2023-04-18T08:31:37.964Z,12.52
2023-04-18T08:34:11.219Z,21.65
2023-04-18T08:36:44.379Z,107.60
2023-04-18T08:39:18.964Z,121.38
2023-04-18T08:41:58.974Z,159.35
2023-04-18T08:44:32.825Z,205.85
2023-04-18T08:47:08.867Z,342.15
2023-04-18T08:49:42.552Z,307.27
2023-04-18T08:52:17.811Z,291.02
2023-04-18T08:54:52.445Z,260.45
2023-04-18T08:57:27.613Z,235.65
2023-04-18T09:00:01.961Z,245.23
2023-04-18T09:02:42.100Z,229.88
2023-04-18T09:05:16.619Z,211.13
2023-04-18T09:07:51.481Z,199.63
2023-04-18T09:10:32.922Z,178.60
2023-04-18T09:13:07.904Z,159.52
2023-04-18T09:15:41.569Z,164.25
2023-04-18T09:18:16.251Z,165.85
2023-04-18T09:20:50.025Z,148.80
2023-04-18T09:23:28.077Z,164.05
2023-04-18T09:26:02.970Z,160.52
2023-04-18T09:28:37.606Z,140.45
2023-04-18T09:31:13.410Z,152.15
2023-04-18T09:33:54.436Z,147.38
2023-04-18T09:36:28.436Z,144.30
2023-04-18T09:39:02.073Z,139.55
2023-04-18T09:41:36.692Z,137.20
2023-04-18T09:44:14.913Z,126.10
2023-04-18T09:46:49.452Z,122.47
2023-04-18T09:49:23.259Z,131.18
2023-04-18T09:54:33.966Z,123.22
2023-04-18T09:57:11.954Z,112.45
2023-04-18T09:59:51.649Z,117.28
2023-04-18T10:02:27.332Z,111.18
2023-04-18T10:05:01.234Z,109.85
2023-04-18T10:10:08.812Z,101.57
2023-04-18T10:12:43.797Z,96.78
2023-04-18T10:15:18.728Z,103.38
2023-04-18T10:20:35.766Z,94.90
2023-04-18T10:23:37.037Z,104.07
2023-04-18T10:26:10.804Z,98.85
2023-04-18T10:31:30.810Z,95.90
2023-04-18T10:34:08.276Z,81.50
2023-04-18T10:37:04.723Z,87.75
2023-04-18T10:39:50.494Z,87.07
2023-04-18T10:42:59.391Z,88.07
2023-04-18T10:45:36.536Z,73.97
2023-04-18T10:48:30.005Z,70.70
2023-04-18T10:51:17.121Z,102.93
2023-04-18T10:53:53.717Z,76.15
2023-04-18T10:56:28.200Z,80.50
2023-04-18T10:59:03.996Z,72.57
2023-04-18T11:01:39.155Z,78.32
2023-04-18T11:04:14.691Z,69.18
2023-04-18T11:06:50.197Z,67.32
2023-04-18T11:09:25.304Z,62.38
2023-04-18T11:12:06.685Z,63.95
2023-04-18T11:14:42.919Z,62.95
2023-04-18T11:17:23.512Z,65.82
2023-04-18T11:20:08.920Z,66.78
2023-04-18T11:22:47.143Z,59.20
2023-04-18T11:25:24.535Z,59.97
2023-04-18T11:28:00.627Z,58.80
2023-04-18T11:30:38.553Z,60.65
2023-04-18T11:33:14.896Z,26.05
2023-04-18T11:35:48.523Z,23.27
2023-04-18T11:38:24.235Z,27.38
2023-04-18T11:40:57.864Z,22.20
2023-04-18T11:43:31.010Z,25.83
2023-04-18T11:46:04.240Z,23.67
2023-04-18T11:48:40.334Z,20.08
2023-04-18T11:51:36.929Z,22.30
2023-04-18T11:54:38.069Z,24.63
2023-04-18T11:57:22.050Z,21.17
2023-04-18T11:59:57.457Z,23.25
2023-04-18T12:02:42.656Z,24.52
2023-04-18T12:05:27.861Z,21.08
2023-04-18T12:08:07.995Z,24.23
2023-04-18T12:10:47.587Z,17.88
2023-04-18T12:13:26.449Z,19.13
2023-04-18T12:16:02.629Z,19.23
2023-04-18T12:18:36.126Z,21.67
2023-04-18T12:21:11.013Z,17.75
2023-04-18T12:23:46.004Z,21.55
2023-04-18T12:26:19.521Z,19.33
2023-04-18T12:28:53.763Z,20.55
2023-04-18T12:31:28.895Z,16.55
2023-04-18T12:34:02.214Z,23.35
2023-04-18T12:36:37.160Z,15.55
2023-04-18T12:39:10.616Z,20.00
2023-04-18T12:41:44.929Z,22.88
2023-04-18T12:44:18.189Z,16.67
2023-04-18T12:46:51.900Z,25.67
2023-04-18T12:51:59.542Z,21.52
2023-04-18T12:54:32.771Z,23.05
2023-04-18T12:57:05.970Z,19.85
2023-04-18T12:59:39.155Z,13.82
2023-04-18T13:02:12.763Z,22.77
2023-04-18T13:07:20.688Z,19.00
2023-04-18T13:09:53.947Z,22.38
2023-04-18T13:12:29.346Z,27.45
2023-04-18T13:15:03.138Z,27.75
2023-04-18T13:20:12.613Z,23.65
2023-04-18T13:22:47.338Z,25.35
2023-04-18T13:25:20.658Z,16.70
2023-04-18T13:27:53.956Z,19.42
2023-04-18T13:30:27.767Z,30.83
2023-04-18T13:35:34.106Z,24.95
2023-04-18T13:38:08.625Z,21.85
2023-04-18T13:40:41.877Z,18.73
2023-04-18T13:43:16.005Z,23.20
2023-04-18T13:45:49.795Z,29.65
2023-04-18T13:48:23.133Z,23.63
2023-04-18T13:50:56.682Z,21.77
2023-04-18T13:56:05.044Z,18.50
2023-04-18T13:58:38.299Z,23.42
2023-04-18T14:01:12.010Z,19.85
2023-04-18T14:06:20.470Z,20.50
2023-04-18T14:08:55.162Z,16.70
2023-04-18T14:11:28.429Z,15.55
2023-04-18T14:14:02.001Z,13.75
2023-04-18T14:16:35.719Z,20.77
2023-04-18T14:21:42.412Z,222.57
2023-04-18T14:24:20.592Z,380.77
2023-04-18T14:26:53.942Z,512.20
2023-04-18T14:29:27.211Z,590.90
2023-04-18T14:32:01.699Z,652.03
2023-04-18T14:34:36.621Z,698.00
2023-04-18T14:37:11.060Z,641.92
2023-04-18T14:39:46.142Z,561.92
2023-04-18T14:42:19.456Z,546.60
2023-04-18T14:44:52.876Z,515.00
2023-04-18T14:47:31.267Z,485.95
2023-04-18T14:50:04.919Z,458.38
2023-04-18T14:52:38.345Z,406.10
2023-04-18T14:55:13.086Z,398.58
2023-04-18T14:57:47.044Z,386.30
2023-04-18T15:00:21.369Z,341.23
2023-04-18T15:02:54.865Z,286.15
2023-04-18T15:05:28.243Z,253.60
2023-04-18T15:08:01.575Z,272.60
2023-04-18T15:10:36.933Z,255.65
2023-04-18T15:13:10.318Z,258.45
2023-04-18T15:15:43.502Z,226.27
2023-04-18T15:18:16.702Z,235.35
2023-04-18T15:20:50.025Z,221.60
2023-04-18T15:23:23.417Z,202.85
2023-04-18T15:25:59.127Z,192.55
2023-04-18T15:28:32.584Z,184.48
2023-04-18T15:31:07.642Z,177.25
2023-04-18T15:33:40.917Z,182.70
2023-04-18T15:36:14.155Z,162.50
2023-04-18T15:38:47.474Z,156.90
2023-04-18T15:41:22.208Z,166.23
2023-04-18T15:43:55.365Z,152.02
2023-04-18T15:46:28.700Z,144.13
2023-04-18T15:49:01.991Z,133.15
2023-04-18T15:51:35.225Z,137.32
2023-04-18T15:54:08.599Z,135.60
2023-04-18T15:56:44.687Z,131.88
2023-04-18T15:59:17.886Z,123.90
2023-04-18T16:01:51.581Z,112.00
2023-04-18T16:04:25.140Z,108.93
2023-04-18T16:06:58.715Z,106.47
2023-04-18T16:09:32.499Z,109.53
2023-04-18T16:14:41.727Z,95.65
2023-04-18T16:17:15.144Z,104.63
2023-04-18T16:19:48.767Z,86.45
2023-04-18T16:24:55.120Z,91.30
2023-04-18T16:27:29.816Z,83.07
2023-04-18T16:30:04.129Z,81.47
2023-04-18T16:32:39.116Z,80.05
2023-04-18T16:35:12.995Z,91.45
2023-04-18T16:40:19.267Z,75.00
2023-04-18T16:42:53.841Z,80.07
2023-04-18T16:45:27.035Z,74.15
2023-04-18T16:48:00.452Z,71.07
2023-04-18T16:50:33.796Z,67.38
2023-04-18T16:53:07.264Z,76.25
2023-04-18T16:55:41.934Z,71.18
2023-04-18T16:58:16.588Z,61.72
2023-04-18T17:00:49.874Z,58.90
2023-04-18T17:03:23.307Z,63.50
2023-04-18T17:05:56.769Z,65.97
2023-04-18T17:08:31.976Z,55.95
2023-04-18T17:11:05.347Z,71.20
2023-04-18T17:13:39.979Z,64.07
2023-04-18T17:16:13.402Z,58.80
2023-04-18T17:18:46.631Z,64.00
2023-04-18T17:21:20.323Z,57.97
2023-04-18T17:26:27.759Z,61.05
2023-04-18T17:29:04.346Z,60.22
2023-04-18T17:31:37.838Z,59.05
2023-04-18T17:34:11.104Z,54.80
2023-04-18T17:36:44.357Z,48.67
2023-04-18T17:39:17.635Z,55.38
2023-04-18T17:41:51.471Z,52.97
2023-04-18T17:49:34.940Z,41.03
2023-04-18T17:52:08.374Z,44.42
2023-04-18T17:54:41.789Z,50.28
2023-04-18T17:57:14.974Z,46.92
2023-04-18T17:59:50.095Z,37.47
2023-04-18T18:02:23.458Z,39.17
2023-04-18T18:07:34.688Z,34.92
2023-04-18T18:10:10.013Z,37.80
2023-04-18T18:12:43.594Z,33.30
2023-04-18T18:15:18.847Z,37.58
2023-04-18T18:17:52.115Z,33.20
2023-04-18T18:20:25.705Z,33.80
2023-04-18T18:22:59.681Z,30.70
2023-04-18T18:25:33.190Z,30.55
2023-04-18T18:28:07.390Z,30.80
2023-04-18T18:30:42.325Z,33.25
2023-04-18T18:33:15.783Z,28.33
2023-04-18T18:35:48.998Z,28.48
2023-04-18T18:38:22.275Z,28.02
2023-04-18T18:40:55.456Z,27.05
2023-04-18T18:43:28.682Z,26.35
2023-04-18T18:46:03.252Z,31.40
2023-04-18T18:48:39.089Z,24.77
2023-04-18T18:51:12.728Z,36.47
2023-04-18T18:53:46.403Z,25.70
2023-04-18T18:56:19.923Z,29.00
2023-04-18T19:01:30.277Z,29.77
2023-04-18T19:04:03.748Z,23.45
2023-04-18T19:06:37.058Z,29.45
2023-04-18T19:09:10.284Z,27.75
2023-04-18T19:11:43.597Z,25.35
2023-04-18T19:14:16.773Z,21.60
2023-04-18T19:16:51.399Z,24.38
2023-04-18T19:19:24.748Z,25.23
2023-04-18T19:21:58.049Z,24.25
2023-04-18T19:24:34.962Z,27.35
2023-04-18T19:27:09.483Z,20.63
2023-04-18T19:29:42.714Z,24.70
2023-04-18T19:32:17.258Z,25.75
2023-04-18T19:34:51.333Z,21.83
2023-04-18T19:37:24.512Z,21.40
2023-04-18T19:39:57.768Z,19.15
2023-04-18T19:42:30.958Z,18.85
2023-04-18T19:45:04.528Z,19.80
2023-04-18T19:47:39.144Z,20.25
2023-04-18T19:50:12.628Z,16.67
2023-04-18T19:52:45.804Z,20.95
2023-04-18T19:55:19.052Z,23.52
2023-04-18T19:57:56.536Z,19.95
2023-04-18T20:00:29.948Z,16.85
2023-04-18T20:03:05.010Z,18.35
2023-04-18T20:05:38.749Z,18.42
2023-04-18T20:08:11.989Z,18.27
2023-04-18T20:10:45.216Z,13.95
2023-04-18T20:13:18.374Z,19.40
2023-04-18T20:15:52.868Z,16.25
2023-04-18T20:18:27.748Z,17.65
2023-04-18T20:21:01.640Z,14.70
2023-04-18T20:23:35.247Z,20.52
2023-04-18T20:26:09.073Z,18.65
2023-04-18T20:28:42.259Z,15.15
2023-04-18T20:31:15.613Z,15.18
2023-04-18T20:33:50.345Z,13.18
2023-04-18T20:36:24.277Z,17.27
2023-04-18T20:38:57.413Z,17.33
2023-04-18T20:41:32.424Z,13.93
2023-04-18T20:44:06.755Z,12.50
2023-04-18T20:46:40.131Z,16.92
2023-04-18T20:49:15.260Z,13.00
2023-04-18T20:51:48.690Z,12.45
2023-04-18T20:54:21.950Z,16.63
2023-04-18T20:56:55.134Z,14.35
2023-04-18T20:59:28.542Z,10.63
2023-04-18T21:02:02.077Z,11.80
2023-04-18T21:07:10.405Z,11.27
2023-04-18T21:09:43.628Z,11.73
2023-04-18T21:12:16.908Z,15.65
2023-04-18T21:14:50.364Z,11.43
2023-04-18T21:17:25.506Z,10.52
2023-04-18T21:20:00.198Z,10.68
2023-04-18T21:22:33.324Z,11.38
2023-04-18T21:25:07.513Z,11.43
2023-04-18T21:27:40.741Z,11.77
2023-04-18T21:30:14.691Z,11.52
2023-04-18T21:32:49.265Z,10.93
2023-04-18T21:35:24.931Z,10.68
2023-04-18T21:37:59.413Z,12.02
2023-04-18T21:40:33.374Z,12.10
2023-04-18T21:43:06.742Z,9.75
2023-04-18T21:45:40.067Z,12.63
2023-04-18T21:48:13.555Z,12.98
2023-04-18T21:50:54.383Z,9.52
2023-04-18T21:53:27.568Z,10.98
2023-04-18T21:56:00.918Z,9.70
2023-04-18T21:58:34.547Z,11.23
2023-04-18T22:03:41.381Z,9.52
2023-04-18T22:06:16.876Z,11.38
2023-04-18T22:08:51.642Z,9.23
2023-04-18T22:11:24.917Z,8.77
2023-04-18T22:13:58.282Z,12.25
2023-04-18T22:16:33.389Z,8.38
2023-04-18T22:19:09.088Z,10.93
2023-04-18T22:21:43.633Z,8.90
2023-04-18T22:24:18.272Z,9.30
2023-04-18T22:26:51.653Z,7.97
2023-04-18T22:29:24.854Z,12.18
2023-04-18T22:31:57.999Z,9.88
2023-04-18T22:34:31.300Z,9.60
2023-04-18T22:37:07.273Z,10.65
2023-04-18T22:39:40.498Z,8.88
2023-04-18T22:42:13.619Z,10.23
2023-04-18T22:44:46.855Z,9.05
2023-04-18T22:47:20.012Z,8.20
2023-04-18T22:49:53.218Z,7.85
2023-04-18T22:52:27.766Z,14.10
2023-04-18T22:55:02.282Z,12.57
2023-04-18T22:57:35.482Z,12.05
2023-04-18T23:00:11.127Z,8.30
2023-04-18T23:02:45.787Z,7.10
2023-04-18T23:05:19.285Z,11.10
2023-04-18T23:07:53.840Z,7.85
2023-04-18T23:10:27.060Z,7.32
2023-04-18T23:13:00.493Z,6.82
2023-04-18T23:15:33.735Z,6.97
2023-04-18T23:18:07.107Z,6.82
2023-04-18T23:20:40.523Z,7.68
2023-04-18T23:23:15.050Z,7.25
2023-04-18T23:25:48.312Z,7.00
2023-04-18T23:28:21.494Z,6.90
2023-04-18T23:30:54.728Z,9.73
2023-04-18T23:33:27.881Z,8.43
2023-04-18T23:36:01.116Z,7.15
2023-04-18T23:38:37.224Z,6.22
2023-04-18T23:41:10.413Z,7.55
2023-04-18T23:43:43.538Z,6.00
2023-04-18T23:46:16.697Z,7.65
2023-04-18T23:48:50.217Z,7.60
2023-04-18T23:51:23.398Z,7.50
2023-04-18T23:53:57.888Z,8.88
2023-04-18T23:56:31.043Z,7.38
2023-04-18T23:59:04.215Z,5.63
